Time;durP1;ratioP1;P1;durP2;ratioP2;P2;SDS_P1;SDS_P2;PMS_P1;PMS_P2;Temp;Humidity;BMP_temperature;BMP_pressure;BME280_temperature;BME280_humidity;BME280_pressure;Samples;Min_cycle;Max_cycle;Signal;HPM_P1;HPM_P2
2023/08/10 00:01:56;;;;;;;9.00;3.15;;;12.70;99.90;;;;;;4947451;29;20059;-52
2023/08/10 00:04:22;;;;;;;9.45;3.13;;;12.70;99.90;;;;;;4948012;29;20046;-54
2023/08/10 00:06:48;;;;;;;8.50;3.20;;;12.60;99.90;;;;;;4948415;29;20533;-55
2023/08/10 00:09:13;;;;;;;11.00;3.38;;;12.60;99.90;;;;;;4947806;29;20051;-51
2023/08/10 00:11:39;;;;;;;8.25;3.30;;;12.70;99.90;;;;;;4948279;29;20051;-55
2023/08/10 00:14:05;;;;;;;11.68;3.42;;;12.70;99.90;;;;;;4948390;29;20679;-55
2023/08/10 00:16:31;;;;;;;9.98;3.40;;;12.60;99.90;;;;;;4945633;29;20563;-55
2023/08/10 00:18:57;;;;;;;8.68;3.20;;;12.50;99.90;;;;;;4935258;29;20044;-55
2023/08/10 00:21:22;;;;;;;6.32;2.92;;;12.80;99.90;;;;;;4928630;29;20044;-55
2023/08/10 00:23:48;;;;;;;11.93;3.35;;;12.50;99.90;;;;;;4929156;29;20050;-54
2023/08/10 00:26:14;;;;;;;9.55;3.22;;;12.40;99.90;;;;;;4929002;29;20471;-56
2023/08/10 00:28:39;;;;;;;7.70;3.10;;;12.60;99.90;;;;;;4928424;29;20047;-53
2023/08/10 00:31:05;;;;;;;7.97;2.97;;;12.40;99.90;;;;;;4928730;29;20056;-54
2023/08/10 00:33:31;;;;;;;8.27;3.22;;;12.40;99.90;;;;;;4926625;29;20612;-53
2023/08/10 00:35:59;;;;;;;6.13;3.05;;;12.40;99.90;;;;;;4927856;29;20107;-54
2023/08/10 00:38:24;;;;;;;7.10;2.85;;;12.30;99.90;;;;;;4929369;29;20048;-55
2023/08/10 00:40:50;;;;;;;10.80;3.08;;;12.30;99.90;;;;;;4932398;29;20055;-55
2023/08/10 00:43:16;;;;;;;12.23;3.42;;;12.30;99.90;;;;;;4932277;29;20052;-54
2023/08/10 00:45:41;;;;;;;9.10;3.58;;;12.20;99.90;;;;;;4932005;29;20047;-55
2023/08/10 00:48:07;;;;;;;9.85;3.17;;;12.20;99.90;;;;;;4931823;29;20521;-53
2023/08/10 00:50:33;;;;;;;6.35;3.40;;;12.20;99.90;;;;;;4931025;29;20051;-55
2023/08/10 00:52:59;;;;;;;10.23;3.30;;;12.10;99.90;;;;;;4931580;29;20071;-55
2023/08/10 00:55:25;;;;;;;5.65;3.38;;;12.10;99.90;;;;;;4933375;29;20138;-54
2023/08/10 00:57:50;;;;;;;12.65;3.80;;;12.20;99.90;;;;;;4949568;29;20047;-55
2023/08/10 01:00:16;;;;;;;6.15;3.50;;;12.10;99.90;;;;;;4950131;29;20109;-55
2023/08/10 01:02:42;;;;;;;6.43;3.20;;;12.20;99.90;;;;;;5012985;23;20086;-55
2023/08/10 01:05:13;;;;;;;8.68;3.75;;;12.20;99.90;;;;;;4931190;29;20063;-56
2023/08/10 01:08:18;;;;;;;9.20;3.60;;;12.10;99.90;;;;;;4930987;29;20051;-55
2023/08/10 01:11:04;;;;;;;8.70;3.50;;;12.10;99.90;;;;;;4930533;29;20055;-55
2023/08/10 01:13:38;;;;;;;7.40;3.50;;;12.10;99.90;;;;;;4931436;29;20419;-55
2023/08/10 01:16:08;;;;;;;11.50;3.63;;;12.10;99.90;;;;;;4931538;29;20047;-55
2023/08/10 01:18:35;;;;;;;10.48;3.40;;;12.20;99.90;;;;;;4928811;29;20070;-55
2023/08/10 01:21:07;;;;;;;8.57;4.28;;;12.20;99.90;;;;;;4931527;29;20079;-55
2023/08/10 01:23:41;;;;;;;9.93;3.95;;;12.20;99.90;;;;;;4931480;29;20048;-55
2023/08/10 01:26:08;;;;;;;6.70;3.50;;;12.20;99.90;;;;;;4931490;29;20091;-55
2023/08/10 01:28:34;;;;;;;9.77;4.28;;;12.20;99.90;;;;;;4931254;29;20715;-54
2023/08/10 01:31:01;;;;;;;8.98;3.42;;;12.40;99.90;;;;;;4931090;29;20074;-53
2023/08/10 01:33:27;;;;;;;6.43;3.70;;;12.30;99.90;;;;;;4930519;29;20410;-55
2023/08/10 01:35:53;;;;;;;9.55;3.70;;;12.30;99.90;;;;;;4930741;29;20047;-55
2023/08/10 01:38:19;;;;;;;8.25;3.72;;;12.30;99.90;;;;;;4931040;29;20047;-55
2023/08/10 01:40:47;;;;;;;11.60;3.63;;;12.40;99.90;;;;;;4931063;29;20043;-52
2023/08/10 01:43:13;;;;;;;9.43;4.00;;;12.40;99.90;;;;;;4931160;29;20052;-55
2023/08/10 01:45:44;;;;;;;8.68;3.72;;;12.30;99.90;;;;;;4928782;29;20118;-53
2023/08/10 01:48:19;;;;;;;10.10;4.00;;;12.30;99.90;;;;;;4925809;29;20043;-55
2023/08/10 01:50:48;;;;;;;6.78;3.58;;;12.40;99.90;;;;;;4930151;29;20054;-54
2023/08/10 01:53:17;;;;;;;8.07;3.70;;;12.30;99.90;;;;;;4931048;29;20058;-55
2023/08/10 01:55:43;;;;;;;8.55;3.72;;;12.30;99.90;;;;;;4927988;29;20197;-55
2023/08/10 01:58:08;;;;;;;10.23;3.95;;;12.30;99.90;;;;;;4920989;29;20902;-55
2023/08/10 02:00:37;;;;;;;7.97;3.97;;;12.30;99.90;;;;;;4929356;29;20382;-57
2023/08/10 02:03:06;;;;;;;7.50;4.13;;;12.30;99.90;;;;;;4929014;29;20111;-54
2023/08/10 02:05:32;;;;;;;9.48;3.45;;;12.20;99.90;;;;;;4930407;29;20499;-55
2023/08/10 02:07:58;;;;;;;9.18;3.70;;;12.30;99.90;;;;;;4930793;29;20052;-54
2023/08/10 02:10:23;;;;;;;7.32;3.88;;;12.30;99.90;;;;;;4928949;29;20044;-56
2023/08/10 02:12:49;;;;;;;9.70;3.75;;;12.30;99.90;;;;;;4929058;29;20407;-53
2023/08/10 02:15:15;;;;;;;7.38;4.03;;;12.40;99.90;;;;;;4930880;29;20052;-54
2023/08/10 02:17:41;;;;;;;6.88;3.80;;;12.30;99.90;;;;;;4929141;29;20179;-54
2023/08/10 02:20:11;;;;;;;13.90;4.18;;;12.30;99.90;;;;;;4930548;29;20130;-54
2023/08/10 02:22:51;;;;;;;7.57;3.95;;;12.30;99.90;;;;;;4928590;29;20476;-53
2023/08/10 02:25:18;;;;;;;9.10;3.58;;;12.30;99.90;;;;;;4930453;29;20098;-53
2023/08/10 02:27:46;;;;;;;9.07;4.38;;;12.30;99.90;;;;;;4930851;29;20040;-53
2023/08/10 02:30:12;;;;;;;12.93;3.88;;;12.30;99.90;;;;;;4930475;29;20044;-51
2023/08/10 02:32:38;;;;;;;9.13;3.85;;;12.30;99.90;;;;;;4928592;29;20048;-54
2023/08/10 02:35:05;;;;;;;9.90;4.03;;;12.30;99.90;;;;;;4930000;29;20090;-57
2023/08/10 02:37:31;;;;;;;11.65;4.07;;;12.30;99.90;;;;;;4930207;29;20630;-54
2023/08/10 02:39:57;;;;;;;11.05;4.30;;;12.30;99.90;;;;;;4929368;29;20047;-57
2023/08/10 02:42:23;;;;;;;8.80;4.00;;;12.20;99.90;;;;;;4944658;29;20438;-54
2023/08/10 02:44:49;;;;;;;6.47;3.70;;;12.30;99.90;;;;;;4930435;29;20471;-56
2023/08/10 02:47:15;;;;;;;9.98;4.13;;;12.20;99.90;;;;;;4929986;29;20499;-55
2023/08/10 02:49:41;;;;;;;12.27;4.40;;;12.20;99.90;;;;;;4929694;29;20127;-56
2023/08/10 02:52:06;;;;;;;8.48;3.90;;;12.20;99.90;;;;;;4928710;29;20043;-54
2023/08/10 02:54:32;;;;;;;9.27;4.18;;;12.30;99.90;;;;;;4930104;29;20198;-55
2023/08/10 02:56:58;;;;;;;9.07;4.43;;;12.20;99.90;;;;;;4923158;29;20052;-55
2023/08/10 02:59:23;;;;;;;8.43;4.35;;;12.30;99.90;;;;;;4911873;29;20040;-53
2023/08/10 03:01:49;;;;;;;10.48;3.88;;;12.40;99.90;;;;;;4910392;29;20191;-55
2023/08/10 03:04:15;;;;;;;10.55;3.95;;;12.30;99.90;;;;;;4910908;29;20494;-55
2023/08/10 03:06:40;;;;;;;9.20;4.05;;;12.30;99.90;;;;;;4910753;29;20803;-53
2023/08/10 03:09:06;;;;;;;7.28;4.10;;;12.30;99.90;;;;;;4910482;29;20139;-55
2023/08/10 03:11:32;;;;;;;7.70;4.03;;;13.00;99.90;;;;;;4910817;29;20107;-54
2023/08/10 03:13:58;;;;;;;7.43;3.97;;;12.20;99.90;;;;;;4910621;29;20047;-55
2023/08/10 03:16:24;;;;;;;9.30;4.32;;;12.20;99.90;;;;;;4909455;29;20107;-55
2023/08/10 03:18:49;;;;;;;12.57;4.88;;;12.20;99.90;;;;;;4910787;29;20044;-55
2023/08/10 03:21:15;;;;;;;11.40;4.22;;;12.20;99.90;;;;;;4910369;29;20044;-55
2023/08/10 03:23:41;;;;;;;9.68;4.40;;;12.20;99.90;;;;;;4910390;29;20051;-55
2023/08/10 03:26:06;;;;;;;11.00;4.60;;;12.20;99.90;;;;;;4910622;29;20043;-55
2023/08/10 03:28:32;;;;;;;8.90;4.53;;;12.30;99.90;;;;;;4910744;29;20050;-55
2023/08/10 03:30:58;;;;;;;9.70;4.65;;;12.30;99.90;;;;;;4909448;29;20083;-54
2023/08/10 03:33:23;;;;;;;9.38;5.10;;;12.30;99.90;;;;;;4910253;29;20111;-54
2023/08/10 03:35:50;;;;;;;11.38;5.18;;;12.30;99.90;;;;;;4910795;29;20095;-55
2023/08/10 03:38:16;;;;;;;10.57;5.00;;;12.50;99.90;;;;;;4909824;29;20052;-55
2023/08/10 03:40:41;;;;;;;9.60;4.88;;;12.30;99.90;;;;;;4910187;29;20357;-54
2023/08/10 03:43:07;;;;;;;11.48;4.82;;;12.40;99.90;;;;;;4910485;29;20040;-55
2023/08/10 03:45:32;;;;;;;13.13;4.97;;;12.40;99.90;;;;;;4910436;29;20103;-56
2023/08/10 03:47:58;;;;;;;10.38;5.63;;;12.40;99.90;;;;;;4909193;29;20111;-54
2023/08/10 03:50:24;;;;;;;11.23;5.13;;;12.40;99.90;;;;;;4910361;29;20059;-53
2023/08/10 03:52:50;;;;;;;9.68;5.43;;;12.70;99.90;;;;;;4910346;29;20051;-55
2023/08/10 03:55:17;;;;;;;10.80;6.05;;;12.50;99.90;;;;;;4910579;29;20048;-55
2023/08/10 03:57:42;;;;;;;13.27;6.00;;;12.50;99.90;;;;;;4920154;29;20123;-55
2023/08/10 04:00:10;;;;;;;11.95;6.03;;;12.50;99.90;;;;;;4909960;29;20123;-55
2023/08/10 04:02:35;;;;;;;11.98;6.57;;;12.50;99.90;;;;;;4908147;29;20060;-55
2023/08/10 04:05:06;;;;;;;11.27;6.43;;;12.50;99.90;;;;;;4909983;29;20131;-54
2023/08/10 04:07:37;;;;;;;8.88;5.75;;;12.50;99.90;;;;;;4910369;29;20052;-55
2023/08/10 04:10:05;;;;;;;10.18;6.28;;;12.50;99.90;;;;;;4909786;29;20048;-52
2023/08/10 04:12:32;;;;;;;9.75;6.43;;;12.60;99.90;;;;;;4909837;29;20048;-55
2023/08/10 04:14:58;;;;;;;10.48;6.03;;;12.90;99.90;;;;;;4912850;29;20483;-55
2023/08/10 04:17:23;;;;;;;9.73;6.32;;;12.60;99.90;;;;;;4913293;29;20044;-55
2023/08/10 04:19:49;;;;;;;11.15;6.40;;;12.60;99.90;;;;;;4913540;29;20107;-55
2023/08/10 04:22:15;;;;;;;10.38;5.68;;;12.60;99.90;;;;;;4913818;29;20052;-55
2023/08/10 04:24:41;;;;;;;10.35;6.03;;;12.60;99.90;;;;;;4913329;29;20498;-56
2023/08/10 04:27:06;;;;;;;9.60;5.65;;;12.60;99.90;;;;;;4913537;29;20411;-55
2023/08/10 04:29:32;;;;;;;7.82;5.40;;;12.70;99.90;;;;;;4914036;29;20051;-55
2023/08/10 04:31:58;;;;;;;13.55;6.00;;;12.60;99.90;;;;;;4912911;29;20052;-55
2023/08/10 04:34:24;;;;;;;8.43;5.50;;;12.70;99.90;;;;;;4913510;29;20718;-53
2023/08/10 04:36:49;;;;;;;10.10;5.63;;;12.90;99.90;;;;;;4912788;29;20056;-54
2023/08/10 04:39:16;;;;;;;11.98;5.80;;;12.70;99.90;;;;;;4913412;29;20055;-55
2023/08/10 04:41:42;;;;;;;11.32;5.38;;;12.70;99.90;;;;;;4913504;29;20099;-54
2023/08/10 04:44:08;;;;;;;9.30;5.20;;;12.70;99.90;;;;;;4913023;29;20388;-55
2023/08/10 04:46:34;;;;;;;8.50;5.57;;;12.80;99.90;;;;;;4912788;29;20051;-54
2023/08/10 04:49:00;;;;;;;13.50;5.43;;;12.80;99.90;;;;;;4912974;29;20059;-55
2023/08/10 04:51:26;;;;;;;14.63;5.93;;;12.80;99.90;;;;;;4913040;29;20051;-56
2023/08/10 04:53:51;;;;;;;8.07;5.13;;;12.80;99.90;;;;;;4913861;29;20487;-54
2023/08/10 04:56:17;;;;;;;8.95;5.40;;;12.90;99.90;;;;;;4917782;29;20760;-55
2023/08/10 04:58:43;;;;;;;12.15;4.85;;;13.00;99.90;;;;;;4919021;29;20047;-57
2023/08/10 05:01:09;;;;;;;10.60;5.15;;;12.90;99.90;;;;;;4910487;29;20747;-51
2023/08/10 05:03:35;;;;;;;9.73;4.85;;;12.90;99.90;;;;;;4912565;29;20056;-54
2023/08/10 05:06:02;;;;;;;9.90;4.82;;;13.00;99.90;;;;;;4913256;29;20403;-54
2023/08/10 05:08:27;;;;;;;9.80;5.22;;;13.10;99.90;;;;;;4912661;29;20044;-55
2023/08/10 05:10:53;;;;;;;9.68;4.88;;;13.10;99.90;;;;;;4913639;29;20040;-54
2023/08/10 05:13:19;;;;;;;7.93;5.07;;;13.10;99.90;;;;;;4912648;29;20040;-55
2023/08/10 05:15:44;;;;;;;7.20;4.78;;;13.10;99.90;;;;;;4911718;29;20554;-55
2023/08/10 05:18:10;;;;;;;11.38;5.03;;;13.10;99.90;;;;;;4912712;29;20523;-54
2023/08/10 05:20:37;;;;;;;9.55;4.80;;;13.30;99.90;;;;;;4912364;29;20059;-53
2023/08/10 05:23:03;;;;;;;8.57;4.70;;;13.30;99.90;;;;;;4912790;29;20055;-55
2023/08/10 05:25:29;;;;;;;8.52;5.03;;;13.30;99.90;;;;;;4911054;29;20403;-55
2023/08/10 05:27:54;;;;;;;5.80;4.28;;;13.40;99.90;;;;;;4912547;29;20095;-54
2023/08/10 05:30:20;;;;;;;8.48;4.70;;;13.40;99.90;;;;;;4912546;29;20151;-57
2023/08/10 05:32:46;;;;;;;8.68;5.35;;;13.50;99.90;;;;;;4910942;29;20098;-55
2023/08/10 05:35:13;;;;;;;9.40;4.85;;;13.60;99.90;;;;;;4912309;29;20040;-54
2023/08/10 05:37:38;;;;;;;10.20;4.85;;;13.50;99.90;;;;;;4912320;29;20055;-53
2023/08/10 05:40:11;;;;;;;8.95;5.30;;;13.70;99.90;;;;;;4912417;29;20458;-52
2023/08/10 05:42:38;;;;;;;8.63;4.70;;;13.70;99.90;;;;;;4910157;29;20048;-54
2023/08/10 05:45:08;;;;;;;9.43;4.80;;;13.80;99.90;;;;;;4928442;29;20126;-56
2023/08/10 05:47:34;;;;;;;10.00;5.20;;;13.80;99.90;;;;;;4930220;29;20139;-57
2023/08/10 05:50:00;;;;;;;6.97;4.55;;;13.90;99.90;;;;;;4930351;29;20598;-53
2023/08/10 05:52:26;;;;;;;11.52;4.72;;;14.10;99.90;;;;;;4931288;29;20050;-55
2023/08/10 05:54:52;;;;;;;9.20;4.25;;;14.10;99.90;;;;;;4930795;29;20031;-55
2023/08/10 05:57:19;;;;;;;10.82;4.13;;;14.20;99.90;;;;;;4921973;29;20135;-54
2023/08/10 05:59:44;;;;;;;8.55;3.80;;;14.30;99.90;;;;;;4911432;29;20345;-56
2023/08/10 06:02:10;;;;;;;9.95;3.47;;;14.30;99.90;;;;;;4910364;29;20056;-55
2023/08/10 06:04:36;;;;;;;11.05;3.80;;;14.40;99.90;;;;;;4909557;29;20051;-57
2023/08/10 06:07:01;;;;;;;6.82;3.72;;;14.50;99.90;;;;;;4911148;29;20071;-56
2023/08/10 06:09:28;;;;;;;8.13;3.53;;;14.70;99.90;;;;;;4911963;29;20051;-56
2023/08/10 06:11:54;;;;;;;12.77;3.35;;;14.60;99.90;;;;;;4911005;29;20051;-56
2023/08/10 06:14:20;;;;;;;9.20;3.63;;;14.60;99.90;;;;;;4910259;29;20048;-56
2023/08/10 06:16:45;;;;;;;11.77;3.60;;;14.70;99.90;;;;;;4909997;29;20075;-54
2023/08/10 06:19:11;;;;;;;8.13;3.25;;;14.70;99.90;;;;;;4910174;29;20407;-55
2023/08/10 06:21:37;;;;;;;6.72;3.42;;;14.80;99.90;;;;;;4908691;29;20068;-56
2023/08/10 06:24:06;;;;;;;8.75;3.38;;;14.80;99.90;;;;;;4910158;29;20032;-54
2023/08/10 06:26:32;;;;;;;8.02;3.53;;;14.90;99.90;;;;;;4910655;29;20127;-54
2023/08/10 06:28:58;;;;;;;9.65;3.40;;;14.90;99.90;;;;;;4910044;29;20206;-55
2023/08/10 06:31:23;;;;;;;8.90;3.08;;;15.00;99.90;;;;;;4923677;29;20111;-55
2023/08/10 06:33:49;;;;;;;8.60;3.17;;;15.10;99.90;;;;;;4910036;29;20111;-55
2023/08/10 06:36:14;;;;;;;11.50;3.38;;;15.30;99.90;;;;;;4909245;29;20476;-55
2023/08/10 06:38:40;;;;;;;6.85;3.35;;;15.40;99.90;;;;;;4910311;29;20048;-56
2023/08/10 06:41:06;;;;;;;8.00;3.10;;;15.20;99.90;;;;;;4911269;29;20391;-54
2023/08/10 06:43:31;;;;;;;12.82;3.50;;;15.30;99.90;;;;;;4911060;29;20506;-54
2023/08/10 06:45:58;;;;;;;13.23;3.25;;;15.40;99.90;;;;;;4924624;29;20265;-52
2023/08/10 06:48:24;;;;;;;11.98;3.50;;;15.50;99.90;;;;;;4911220;29;20502;-55
2023/08/10 06:50:49;;;;;;;7.40;2.90;;;15.50;99.90;;;;;;4910891;29;20040;-56
2023/08/10 06:53:15;;;;;;;9.35;3.30;;;15.70;99.90;;;;;;4910849;29;20059;-56
2023/08/10 06:55:42;;;;;;;7.65;3.20;;;15.90;99.90;;;;;;4912690;29;20046;-57
2023/08/10 06:58:08;;;;;;;8.32;3.22;;;16.30;99.90;;;;;;4921043;29;20224;-56
2023/08/10 07:00:35;;;;;;;12.07;3.40;;;17.10;99.90;;;;;;4928753;29;20043;-56
2023/08/10 07:03:02;;;;;;;7.05;2.97;;;18.00;99.90;;;;;;4928998;29;20052;-56
2023/08/10 07:05:28;;;;;;;9.90;3.17;;;18.70;99.90;;;;;;4929406;29;20541;-54
2023/08/10 07:07:55;;;;;;;10.60;3.50;;;19.20;99.90;;;;;;4929918;29;20044;-54
2023/08/10 07:10:21;;;;;;;6.55;3.00;;;19.50;99.90;;;;;;4929474;29;20414;-56
2023/08/10 07:12:46;;;;;;;9.07;3.08;;;19.70;99.90;;;;;;4929908;29;20054;-56
2023/08/10 07:15:12;;;;;;;12.68;3.22;;;19.90;99.90;;;;;;4929363;29;20058;-56
2023/08/10 07:17:38;;;;;;;10.93;3.78;;;19.90;99.90;;;;;;4928304;29;20139;-56
2023/08/10 07:20:05;;;;;;;8.18;2.85;;;20.10;99.90;;;;;;4928987;29;20039;-56
2023/08/10 07:22:31;;;;;;;5.45;2.35;;;20.30;99.90;;;;;;4929195;29;20066;-54
2023/08/10 07:25:00;;;;;;;8.75;2.15;;;20.40;99.90;;;;;;4929129;29;20592;-56
2023/08/10 07:27:26;;;;;;;9.27;2.22;;;20.10;99.90;;;;;;4928467;29;20054;-55
2023/08/10 07:29:51;;;;;;;6.20;2.33;;;20.20;99.90;;;;;;4929072;29;20386;-55
2023/08/10 07:32:19;;;;;;;8.65;2.08;;;20.30;99.90;;;;;;4928368;29;20127;-55
2023/08/10 07:34:45;;;;;;;8.00;2.00;;;20.30;99.90;;;;;;4926693;29;20543;-55
2023/08/10 07:37:10;;;;;;;7.32;1.73;;;20.60;99.90;;;;;;4929207;29;20134;-54
2023/08/10 07:39:36;;;;;;;7.97;1.45;;;20.60;99.70;;;;;;4928935;29;20043;-58
2023/08/10 07:42:02;;;;;;;7.07;1.30;;;20.90;99.60;;;;;;4929394;29;20044;-55
2023/08/10 07:44:27;;;;;;;10.38;2.13;;;20.60;99.00;;;;;;4928589;29;20058;-56
2023/08/10 07:46:53;;;;;;;6.25;1.40;;;20.50;98.90;;;;;;4928251;29;20518;-55
2023/08/10 07:49:18;;;;;;;7.03;1.80;;;20.50;98.80;;;;;;4929704;29;20040;-53
2023/08/10 07:51:47;;;;;;;10.43;1.75;;;20.40;98.50;;;;;;4930213;29;20051;-55
2023/08/10 07:54:15;;;;;;;6.38;1.60;;;20.40;98.40;;;;;;4932272;29;20135;-55
2023/08/10 07:56:42;;;;;;;10.73;1.70;;;20.20;98.60;;;;;;4928250;29;20044;-55
2023/08/10 07:59:09;;;;;;;10.13;1.77;;;19.90;98.80;;;;;;4932044;29;20048;-57
2023/08/10 08:01:34;;;;;;;8.70;2.20;;;19.80;98.80;;;;;;4932196;29;20054;-55
2023/08/10 08:04:00;;;;;;;8.52;1.60;;;20.10;98.80;;;;;;4933352;29;20047;-55
2023/08/10 08:06:25;;;;;;;6.82;1.45;;;20.60;98.70;;;;;;4915834;29;20655;-54
2023/08/10 08:08:51;;;;;;;6.55;1.40;;;20.70;98.30;;;;;;4932232;29;20040;-55
2023/08/10 08:11:18;;;;;;;4.65;1.45;;;20.90;98.20;;;;;;4932222;29;20087;-54
2023/08/10 08:13:43;;;;;;;7.53;1.67;;;21.00;97.80;;;;;;4932643;29;20048;-55
2023/08/10 08:16:10;;;;;;;8.23;1.55;;;21.00;97.90;;;;;;4931432;29;20052;-55
2023/08/10 08:18:47;;;;;;;5.57;1.42;;;21.10;98.00;;;;;;4932649;29;20051;-55
2023/08/10 08:21:17;;;;;;;7.47;1.73;;;21.40;98.20;;;;;;4932417;29;20040;-54
2023/08/10 08:23:43;;;;;;;8.90;1.50;;;21.70;97.70;;;;;;4930524;29;20047;-55
2023/08/10 08:26:09;;;;;;;10.35;1.95;;;21.90;97.50;;;;;;4932032;29;20383;-54
2023/08/10 08:28:35;;;;;;;5.07;1.60;;;21.60;97.40;;;;;;4932964;29;20050;-55
2023/08/10 08:31:01;;;;;;;8.43;1.73;;;20.90;97.30;;;;;;4931424;29;20147;-57
2023/08/10 08:33:27;;;;;;;8.07;1.58;;;20.20;98.50;;;;;;4932101;29;20066;-57
2023/08/10 08:35:53;;;;;;;6.30;1.52;;;19.70;99.50;;;;;;4931962;29;20051;-56
2023/08/10 08:38:19;;;;;;;7.03;1.35;;;19.80;99.90;;;;;;4932015;29;20035;-54
2023/08/10 08:40:44;;;;;;;5.60;1.52;;;20.40;99.70;;;;;;4931034;29;20280;-56
2023/08/10 08:43:11;;;;;;;3.97;1.40;;;20.80;98.80;;;;;;4931422;29;20411;-55
2023/08/10 08:45:38;;;;;;;7.75;1.80;;;21.10;98.20;;;;;;4930776;29;20093;-56
2023/08/10 08:48:05;;;;;;;5.72;1.40;;;20.90;98.40;;;;;;4931615;29;20107;-56
2023/08/10 08:50:32;;;;;;;10.18;1.88;;;20.90;98.30;;;;;;4931499;29;20143;-54
2023/08/10 08:52:58;;;;;;;5.50;1.38;;;20.60;98.10;;;;;;4931841;29;20095;-57
2023/08/10 08:55:25;;;;;;;4.00;1.52;;;20.50;98.30;;;;;;4928343;29;20106;-56
2023/08/10 08:57:51;;;;;;;8.48;1.65;;;20.40;98.00;;;;;;4922897;29;20135;-57
2023/08/10 09:00:17;;;;;;;7.15;1.63;;;20.30;98.00;;;;;;4930846;29;20876;-56
2023/08/10 09:02:43;;;;;;;6.80;1.30;;;20.20;98.10;;;;;;4931314;29;20047;-57
2023/08/10 09:05:08;;;;;;;7.20;1.65;;;20.20;98.50;;;;;;4931285;29;20479;-56
2023/08/10 09:07:34;;;;;;;4.80;1.40;;;20.20;98.60;;;;;;4931254;29;20103;-57
2023/08/10 09:10:00;;;;;;;8.18;1.70;;;20.30;99.30;;;;;;4931242;29;20475;-55
2023/08/10 09:12:37;;;;;;;4.63;1.30;;;20.40;98.60;;;;;;4931075;29;20166;-57
2023/08/10 09:15:10;;;;;;;6.35;1.40;;;20.30;98.00;;;;;;4930928;29;20103;-56
2023/08/10 09:17:52;;;;;;;6.55;1.38;;;20.30;98.30;;;;;;4931112;29;20064;-54
2023/08/10 09:20:23;;;;;;;4.47;1.08;;;20.50;97.30;;;;;;4931031;29;20284;-55
2023/08/10 09:22:53;;;;;;;5.60;1.33;;;20.30;97.40;;;;;;4931138;29;20280;-57
2023/08/10 09:25:19;;;;;;;4.97;1.15;;;20.30;97.50;;;;;;4930871;29;20505;-56
2023/08/10 09:27:47;;;;;;;3.97;1.10;;;20.20;97.40;;;;;;4930751;29;20286;-57
2023/08/10 09:30:13;;;;;;;7.18;1.60;;;20.00;97.40;;;;;;4930243;29;20134;-57
2023/08/10 09:32:40;;;;;;;2.85;1.00;;;19.80;97.70;;;;;;4930514;29;20044;-57
2023/08/10 09:35:11;;;;;;;8.00;1.42;;;19.70;98.00;;;;;;4930887;29;20134;-56
2023/08/10 09:37:37;;;;;;;5.65;1.40;;;19.70;98.00;;;;;;4931341;29;20056;-56
2023/08/10 09:40:05;;;;;;;2.95;1.10;;;19.60;98.40;;;;;;4930948;29;20047;-57
2023/08/10 09:42:32;;;;;;;3.70;1.23;;;19.50;98.20;;;;;;4930920;29;20243;-56
2023/08/10 09:44:59;;;;;;;5.68;1.00;;;19.50;98.20;;;;;;4929803;29;20122;-57
2023/08/10 09:47:25;;;;;;;4.88;1.23;;;19.50;97.90;;;;;;4930084;29;20046;-57
2023/08/10 09:49:57;;;;;;;4.82;1.30;;;19.50;98.40;;;;;;4930566;29;20047;-56
2023/08/10 09:52:24;;;;;;;9.70;1.55;;;19.50;98.40;;;;;;4930576;29;20043;-56
2023/08/10 09:54:51;;;;;;;9.85;1.50;;;19.60;98.20;;;;;;4929934;29;20098;-57
2023/08/10 09:57:21;;;;;;;5.32;1.48;;;19.70;98.90;;;;;;4921311;29;20326;-56
2023/08/10 09:59:47;;;;;;;6.75;1.20;;;19.70;98.40;;;;;;4911641;29;20480;-56
2023/08/10 10:02:16;;;;;;;5.30;1.65;;;19.80;98.50;;;;;;4910033;29;20088;-56
2023/08/10 10:04:43;;;;;;;6.28;1.45;;;19.70;98.70;;;;;;4911554;29;20048;-56
2023/08/10 10:07:11;;;;;;;4.05;1.10;;;19.80;98.50;;;;;;4911941;29;20048;-57
2023/08/10 10:09:37;;;;;;;7.40;1.30;;;19.90;98.00;;;;;;4911489;29;20048;-57
2023/08/10 10:12:07;;;;;;;4.80;1.48;;;19.90;97.70;;;;;;4910767;29;20068;-57
2023/08/10 10:14:34;;;;;;;3.53;1.02;;;19.80;98.10;;;;;;4910711;29;20054;-57
2023/08/10 10:17:01;;;;;;;6.63;1.70;;;19.90;97.90;;;;;;4909681;29;20056;-56
2023/08/10 10:19:27;;;;;;;5.53;1.38;;;19.70;97.60;;;;;;4911361;29;20047;-56
2023/08/10 10:21:53;;;;;;;5.43;1.45;;;19.80;97.90;;;;;;4911473;29;20048;-57
2023/08/10 10:24:19;;;;;;;5.97;1.20;;;19.80;97.50;;;;;;4911199;29;20051;-56
2023/08/10 10:26:59;;;;;;;5.68;1.33;;;19.80;97.50;;;;;;4910835;29;20534;-56
2023/08/10 10:29:54;;;;;;;4.68;1.23;;;19.90;97.40;;;;;;4910816;29;20462;-55
2023/08/10 10:32:21;;;;;;;5.65;1.40;;;19.60;97.40;;;;;;4906666;29;20448;-57
2023/08/10 10:34:51;;;;;;;5.30;1.17;;;19.70;98.00;;;;;;4893919;29;20051;-56
2023/08/10 10:37:30;;;;;;;2.58;0.93;;;19.80;97.90;;;;;;4910499;29;20352;-55
2023/08/10 10:40:18;;;;;;;3.55;1.00;;;19.90;98.30;;;;;;4910939;29;20048;-55
2023/08/10 10:43:08;;;;;;;6.45;1.05;;;20.00;96.70;;;;;;4910733;29;20052;-55
2023/08/10 10:45:42;;;;;;;7.88;1.27;;;19.90;97.40;;;;;;4909473;29;20468;-54
2023/08/10 10:48:13;;;;;;;3.05;1.00;;;19.90;97.60;;;;;;4911177;29;20467;-55
2023/08/10 10:50:39;;;;;;;3.70;0.98;;;20.00;97.40;;;;;;4911045;29;20539;-55
2023/08/10 10:53:13;;;;;;;5.50;1.20;;;20.00;97.10;;;;;;4910107;29;20050;-56
2023/08/10 10:55:48;;;;;;;4.88;1.27;;;19.90;97.40;;;;;;4913344;29;20048;-55
2023/08/10 10:58:15;;;;;;;6.80;1.20;;;20.00;97.40;;;;;;4921096;29;20059;-55
2023/08/10 11:00:43;;;;;;;3.25;1.13;;;20.00;97.30;;;;;;4928718;29;20053;-56
2023/08/10 11:03:10;;;;;;;4.80;1.00;;;20.10;96.70;;;;;;4929856;29;20051;-55
2023/08/10 11:05:37;;;;;;;3.35;1.10;;;20.00;96.50;;;;;;4929760;29;20530;-55
2023/08/10 11:08:05;;;;;;;3.47;0.90;;;20.00;96.30;;;;;;4929336;29;20048;-55
2023/08/10 11:10:36;;;;;;;5.18;1.25;;;19.90;96.40;;;;;;4930063;29;20047;-55
2023/08/10 11:13:06;;;;;;;5.18;1.00;;;19.90;96.70;;;;;;4929611;29;20082;-54
2023/08/10 11:15:32;;;;;;;3.95;1.10;;;19.80;96.80;;;;;;4928404;29;20590;-55
2023/08/10 11:17:57;;;;;;;3.22;1.20;;;19.80;97.00;;;;;;4929255;29;20055;-55
2023/08/10 11:20:23;;;;;;;4.95;1.08;;;19.90;97.10;;;;;;4929574;29;20043;-55
2023/08/10 11:22:51;;;;;;;4.38;1.15;;;19.90;96.50;;;;;;4928585;29;20073;-52
2023/08/10 11:25:19;;;;;;;5.75;1.27;;;19.90;96.00;;;;;;4929178;29;20107;-57
2023/08/10 11:27:47;;;;;;;3.03;1.00;;;19.90;96.20;;;;;;4928257;29;20043;-56
2023/08/10 11:30:17;;;;;;;4.78;0.95;;;19.90;96.00;;;;;;4928287;29;20060;-56
2023/08/10 11:32:45;;;;;;;8.90;1.00;;;20.00;96.30;;;;;;4929991;29;20075;-55
2023/08/10 11:35:12;;;;;;;3.72;1.00;;;20.00;96.20;;;;;;4929221;29;20055;-56
2023/08/10 11:37:41;;;;;;;4.35;1.00;;;20.10;96.60;;;;;;4928160;29;20043;-55
2023/08/10 11:40:17;;;;;;;2.67;0.82;;;20.10;96.50;;;;;;4928910;29;20091;-56
2023/08/10 11:42:47;;;;;;;5.07;1.20;;;20.10;96.60;;;;;;4928725;29;20098;-55
2023/08/10 11:45:20;;;;;;;6.28;1.33;;;20.10;97.10;;;;;;4927918;29;20055;-56
2023/08/10 11:47:54;;;;;;;9.38;1.27;;;20.10;97.30;;;;;;4910390;29;20125;-56
2023/08/10 11:50:21;;;;;;;6.85;1.40;;;20.00;97.30;;;;;;4909472;29;20040;-55
2023/08/10 11:52:49;;;;;;;3.30;1.10;;;20.10;97.70;;;;;;4928925;29;20043;-56
2023/08/10 11:55:16;;;;;;;5.10;1.52;;;20.30;97.00;;;;;;4927925;29;20487;-56
2023/08/10 11:57:51;;;;;;;3.95;1.35;;;20.40;96.90;;;;;;4919424;29;20060;-56
2023/08/10 12:00:22;;;;;;;2.30;1.10;;;20.40;96.60;;;;;;4908895;29;20476;-54
2023/08/10 12:03:07;;;;;;;3.25;1.13;;;20.60;96.40;;;;;;4909512;29;20060;-55
2023/08/10 12:05:43;;;;;;;3.92;0.73;;;20.60;96.00;;;;;;4909750;29;20123;-53
2023/08/10 12:08:14;;;;;;;4.15;0.82;;;20.60;96.30;;;;;;4910282;29;20104;-55
2023/08/10 12:10:47;;;;;;;6.90;0.85;;;20.80;96.60;;;;;;4926372;29;20207;-66
2023/08/10 12:13:15;;;;;;;4.90;1.00;;;21.00;96.50;;;;;;4929045;29;20079;-64
2023/08/10 12:15:49;;;;;;;4.47;1.17;;;21.00;96.20;;;;;;4928424;29;20048;-66
2023/08/10 12:18:20;;;;;;;1.45;0.73;;;20.90;96.10;;;;;;4929204;29;20099;-65
2023/08/10 12:20:47;;;;;;;3.28;1.10;;;20.80;96.20;;;;;;4928418;29;20562;-62
2023/08/10 12:23:14;;;;;;;3.72;1.10;;;20.70;95.80;;;;;;4927385;29;20051;-65
2023/08/10 12:25:40;;;;;;;3.55;1.20;;;20.60;95.90;;;;;;4928712;29;20058;-65
2023/08/10 12:28:07;;;;;;;1.85;0.70;;;20.40;96.00;;;;;;4928778;29;20054;-61
2023/08/10 12:30:33;;;;;;;3.28;1.00;;;20.30;96.20;;;;;;4926072;29;20130;-61
2023/08/10 12:33:01;;;;;;;5.32;1.23;;;20.20;95.90;;;;;;4928981;29;20129;-63
2023/08/10 12:35:27;;;;;;;4.45;1.00;;;20.30;95.90;;;;;;4930753;29;20462;-61
2023/08/10 12:37:52;;;;;;;1.80;0.70;;;20.20;96.30;;;;;;4931725;29;20083;-69
2023/08/10 12:40:18;;;;;;;3.30;0.80;;;20.30;96.40;;;;;;4930537;29;20048;-60
2023/08/10 12:42:44;;;;;;;2.90;0.90;;;20.30;96.50;;;;;;4932683;29;20048;-69
2023/08/10 12:45:12;;;;;;;3.25;1.00;;;20.40;96.80;;;;;;4931241;29;20051;-69
2023/08/10 12:47:39;;;;;;;1.90;1.00;;;20.50;96.60;;;;;;4931683;29;20114;-67